createdAt,value
2023-02-17T00:00:22.525Z,47.30
2023-02-17T00:02:51.049Z,47.53
2023-02-17T00:05:21.943Z,47.37
2023-02-17T00:07:50.177Z,47.00
2023-02-17T00:10:20.125Z,48.40
2023-02-17T00:12:50.536Z,48.53
2023-02-17T00:15:19.750Z,46.30
2023-02-17T00:17:47.883Z,46.83
2023-02-17T00:20:17.413Z,45.20
2023-02-17T00:22:45.544Z,45.10
2023-02-17T00:25:13.676Z,44.17
2023-02-17T00:27:45.869Z,45.77
2023-02-17T00:30:15.208Z,45.63
2023-02-17T00:32:45.877Z,45.47
2023-02-17T00:35:14.370Z,45.20
2023-02-17T00:37:45.877Z,47.50
2023-02-17T00:40:15.282Z,45.43
2023-02-17T00:42:46.329Z,45.77
2023-02-17T00:45:15.030Z,44.20
2023-02-17T00:47:44.030Z,46.27
2023-02-17T00:50:14.626Z,45.93
2023-02-17T00:52:42.880Z,45.00
2023-02-17T00:55:35.826Z,44.67
2023-02-17T00:58:05.406Z,44.50
2023-02-17T01:00:37.645Z,43.97
2023-02-17T01:03:05.997Z,44.33
2023-02-17T01:05:37.257Z,44.60
2023-02-17T01:08:05.698Z,44.27
2023-02-17T01:10:34.088Z,44.03
2023-02-17T01:13:07.504Z,43.40
2023-02-17T01:15:39.147Z,43.00
2023-02-17T01:18:07.762Z,43.03
2023-02-17T01:20:37.158Z,43.90
2023-02-17T01:23:06.872Z,42.83
2023-02-17T01:25:39.165Z,44.53
2023-02-17T01:28:10.374Z,45.07
2023-02-17T01:30:42.661Z,43.07
2023-02-17T01:33:11.082Z,44.33
2023-02-17T01:35:42.491Z,44.27
2023-02-17T01:38:10.916Z,42.90
2023-02-17T01:40:40.043Z,43.17
2023-02-17T01:43:16.912Z,44.10
2023-02-17T01:45:51.975Z,43.97
2023-02-17T01:48:22.366Z,43.60
2023-02-17T01:50:55.346Z,41.67
2023-02-17T01:53:30.918Z,42.20
2023-02-17T01:56:00.097Z,43.13
2023-02-17T01:58:31.901Z,43.10
2023-02-17T02:01:04.560Z,41.83
2023-02-17T02:03:36.936Z,42.27
2023-02-17T02:06:09.142Z,44.17
2023-02-17T02:08:43.966Z,41.83
2023-02-17T02:11:13.067Z,43.73
2023-02-17T02:13:42.672Z,43.63
2023-02-17T02:16:17.618Z,44.13
2023-02-17T02:18:57.442Z,44.13
2023-02-17T02:21:48.234Z,42.53
2023-02-17T02:24:35.902Z,43.27
2023-02-17T02:27:41.105Z,42.63
2023-02-17T02:30:43.042Z,43.00
2023-02-17T02:33:20.215Z,40.97
2023-02-17T02:35:58.088Z,42.60
2023-02-17T02:38:39.999Z,41.30
2023-02-17T02:41:13.110Z,42.97
2023-02-17T02:43:42.933Z,42.03
2023-02-17T02:46:11.448Z,42.10
2023-02-17T02:48:41.665Z,41.73
2023-02-17T02:51:22.015Z,44.10
2023-02-17T02:54:27.304Z,41.97
2023-02-17T02:57:23.510Z,41.23
2023-02-17T03:00:08.110Z,42.10
2023-02-17T03:02:45.669Z,42.53
2023-02-17T03:05:23.219Z,39.90
2023-02-17T03:08:00.544Z,42.43
2023-02-17T03:10:29.231Z,41.07
2023-02-17T03:12:58.127Z,43.67
2023-02-17T03:15:30.347Z,43.47
2023-02-17T03:17:58.966Z,43.27
2023-02-17T03:20:34.672Z,41.17
2023-02-17T03:23:06.242Z,42.30
2023-02-17T03:25:36.066Z,43.00
2023-02-17T03:28:06.274Z,44.20
2023-02-17T03:30:35.718Z,44.17
2023-02-17T03:33:04.028Z,43.30
2023-02-17T03:35:33.720Z,43.27
2023-02-17T03:38:04.008Z,44.77
2023-02-17T03:40:33.159Z,43.30
2023-02-17T03:43:01.949Z,43.70
2023-02-17T03:45:31.967Z,42.27
2023-02-17T03:48:00.536Z,43.37
2023-02-17T03:50:52.838Z,43.63
2023-02-17T03:53:22.335Z,44.33
2023-02-17T03:56:16.167Z,42.40
2023-02-17T03:58:44.744Z,41.90
2023-02-17T04:01:14.136Z,44.47
2023-02-17T04:03:43.263Z,43.77
2023-02-17T04:06:12.132Z,43.97
2023-02-17T04:08:41.968Z,42.37
2023-02-17T04:11:11.207Z,43.33
2023-02-17T04:13:40.954Z,43.20
2023-02-17T04:16:12.487Z,43.07
2023-02-17T04:18:40.857Z,43.10
2023-02-17T04:21:09.433Z,42.67
2023-02-17T04:23:38.477Z,42.70
2023-02-17T04:26:10.190Z,43.37
2023-02-17T04:28:43.489Z,43.17
2023-02-17T04:31:12.662Z,44.00
2023-02-17T04:33:40.865Z,43.50
2023-02-17T04:36:09.550Z,43.73
2023-02-17T04:38:37.940Z,43.00
2023-02-17T04:41:08.149Z,41.43
2023-02-17T04:43:36.781Z,42.23
2023-02-17T04:46:05.646Z,42.67
2023-02-17T04:48:34.022Z,43.30
2023-02-17T04:51:03.170Z,44.47
2023-02-17T04:53:35.326Z,44.10
2023-02-17T04:56:03.991Z,44.23
2023-02-17T04:58:35.001Z,41.93
2023-02-17T05:01:03.960Z,43.40
2023-02-17T05:03:32.176Z,44.13
2023-02-17T05:06:05.096Z,44.43
2023-02-17T05:08:36.616Z,43.57
2023-02-17T05:11:06.146Z,41.93
2023-02-17T05:13:35.971Z,43.27
2023-02-17T05:16:04.791Z,45.73
2023-02-17T05:18:34.020Z,45.73
2023-02-17T05:21:05.118Z,43.47
2023-02-17T05:23:33.961Z,43.27
2023-02-17T05:26:02.252Z,45.60
2023-02-17T05:28:30.380Z,43.93
2023-02-17T05:31:05.468Z,44.33
2023-02-17T05:33:33.992Z,43.17
2023-02-17T05:36:07.504Z,44.60
2023-02-17T05:38:37.019Z,43.40
2023-02-17T05:41:06.151Z,44.13
2023-02-17T05:43:34.960Z,42.70
2023-02-17T05:46:06.047Z,44.57
2023-02-17T05:48:35.299Z,43.90
2023-02-17T05:51:03.459Z,40.73
2023-02-17T05:53:32.339Z,41.90
2023-02-17T05:56:00.584Z,43.50
2023-02-17T05:58:32.453Z,41.13
2023-02-17T06:01:03.285Z,42.23
2023-02-17T06:03:32.783Z,41.30
2023-02-17T06:06:01.038Z,40.73
2023-02-17T06:08:29.300Z,40.80
2023-02-17T06:10:57.809Z,42.40
2023-02-17T06:13:26.983Z,42.23
2023-02-17T06:15:58.283Z,39.83
2023-02-17T06:18:26.558Z,41.00
2023-02-17T06:20:58.261Z,40.67
2023-02-17T06:23:32.010Z,39.97
2023-02-17T06:26:00.615Z,39.77
2023-02-17T06:28:29.155Z,40.57
2023-02-17T06:30:57.488Z,40.83
2023-02-17T06:33:25.702Z,42.00
2023-02-17T06:35:54.241Z,39.13
2023-02-17T06:38:23.827Z,39.03
2023-02-17T06:40:56.308Z,41.20
2023-02-17T06:43:24.436Z,40.00
2023-02-17T06:45:53.010Z,39.83
2023-02-17T06:48:22.074Z,41.00
2023-02-17T06:50:50.658Z,40.80
2023-02-17T06:53:24.008Z,43.30
2023-02-17T06:55:52.397Z,38.63
2023-02-17T06:58:20.674Z,38.70
2023-02-17T07:00:48.948Z,39.37
2023-02-17T07:03:17.098Z,37.13
2023-02-17T07:05:48.767Z,36.27
2023-02-17T07:08:17.062Z,37.27
2023-02-17T07:10:46.612Z,37.63
2023-02-17T07:13:14.772Z,37.33
2023-02-17T07:15:42.993Z,37.63
2023-02-17T07:18:12.056Z,37.17
2023-02-17T07:20:43.747Z,37.43
2023-02-17T07:23:11.922Z,36.90
2023-02-17T07:25:40.059Z,36.37
2023-02-17T07:28:10.079Z,35.27
2023-02-17T07:30:39.712Z,35.33
2023-02-17T07:33:08.260Z,36.30
2023-02-17T07:35:39.377Z,35.10
2023-02-17T07:38:08.493Z,34.40
2023-02-17T07:40:36.715Z,34.57
2023-02-17T07:43:04.885Z,35.17
2023-02-17T07:45:36.319Z,34.67
2023-02-17T07:48:07.422Z,36.00
2023-02-17T07:50:35.875Z,34.93
2023-02-17T07:53:04.709Z,35.30
2023-02-17T07:55:33.181Z,33.63
2023-02-17T07:58:01.333Z,34.60
2023-02-17T08:00:29.603Z,34.93
2023-02-17T08:02:59.047Z,34.33
2023-02-17T08:05:28.730Z,34.33
2023-02-17T08:08:10.757Z,32.57
2023-02-17T08:10:56.912Z,34.17
2023-02-17T08:13:26.046Z,32.57
2023-02-17T08:15:54.303Z,35.37
2023-02-17T08:18:26.987Z,33.67
2023-02-17T08:20:56.259Z,33.57
2023-02-17T08:23:24.436Z,33.50
2023-02-17T08:25:52.671Z,32.47
2023-02-17T08:28:21.635Z,32.87
2023-02-17T08:30:49.970Z,32.00
2023-02-17T08:33:22.044Z,32.10
2023-02-17T08:35:51.579Z,32.03
2023-02-17T08:38:20.032Z,31.03
2023-02-17T08:40:49.231Z,31.13
2023-02-17T08:43:17.387Z,30.77
2023-02-17T08:45:48.939Z,31.17
2023-02-17T08:48:17.881Z,31.87
2023-02-17T08:50:48.901Z,32.33
2023-02-17T08:53:18.564Z,32.80
2023-02-17T08:55:50.048Z,32.07
2023-02-17T08:58:18.619Z,31.00
2023-02-17T09:00:46.866Z,33.17
2023-02-17T09:03:15.299Z,32.27
2023-02-17T09:05:43.733Z,31.97
2023-02-17T09:08:11.992Z,31.17
2023-02-17T09:10:42.230Z,32.43
2023-02-17T09:13:11.245Z,31.13
2023-02-17T09:15:41.127Z,33.03
2023-02-17T09:18:09.357Z,31.23
2023-02-17T09:20:39.534Z,32.23
2023-02-17T09:23:08.344Z,33.30
2023-02-17T09:25:39.495Z,31.37
2023-02-17T09:28:09.028Z,33.50
2023-02-17T09:30:38.424Z,33.20
2023-02-17T09:33:06.646Z,32.00
2023-02-17T09:35:35.383Z,31.97
2023-02-17T09:38:03.963Z,31.53
2023-02-17T09:40:46.997Z,31.80
2023-02-17T09:43:19.040Z,31.57
2023-02-17T09:45:51.636Z,32.10
2023-02-17T09:48:24.585Z,32.30
2023-02-17T09:50:57.222Z,32.17
2023-02-17T09:53:33.086Z,32.33
2023-02-17T09:56:06.517Z,33.87
2023-02-17T09:58:40.099Z,33.13
2023-02-17T10:01:12.958Z,32.60
2023-02-17T10:03:47.358Z,31.97
2023-02-17T10:06:18.622Z,34.50
2023-02-17T10:08:52.225Z,33.63
2023-02-17T10:11:31.229Z,32.47
2023-02-17T10:14:07.030Z,33.53
2023-02-17T10:16:40.974Z,34.00
2023-02-17T10:19:15.287Z,32.33
2023-02-17T10:21:49.214Z,34.63
2023-02-17T10:24:17.536Z,32.97
2023-02-17T10:26:58.509Z,33.10
2023-02-17T10:29:38.841Z,34.30
2023-02-17T10:32:24.643Z,32.83
2023-02-17T10:35:04.521Z,33.17
2023-02-17T10:37:39.964Z,33.63
2023-02-17T10:40:15.833Z,33.67
2023-02-17T10:42:44.166Z,31.87
2023-02-17T10:45:20.881Z,32.57
2023-02-17T10:47:49.358Z,33.20
2023-02-17T10:50:24.688Z,33.10
2023-02-17T10:52:56.268Z,31.83
2023-02-17T10:55:36.688Z,34.33
2023-02-17T10:58:11.809Z,33.03
2023-02-17T11:00:44.296Z,33.03
2023-02-17T11:03:21.374Z,32.43
2023-02-17T11:05:56.095Z,32.50
2023-02-17T11:08:34.764Z,33.07
2023-02-17T11:11:09.073Z,34.03
2023-02-17T11:13:42.369Z,34.60
2023-02-17T11:16:43.199Z,33.87
2023-02-17T11:19:23.559Z,34.00
2023-02-17T11:21:54.366Z,34.00
2023-02-17T11:24:23.353Z,32.57
2023-02-17T11:27:01.281Z,32.50
2023-02-17T11:29:30.605Z,36.17
2023-02-17T11:32:02.195Z,34.53
2023-02-17T11:34:36.179Z,35.13
2023-02-17T11:37:22.288Z,35.47
2023-02-17T11:39:55.262Z,35.90
2023-02-17T11:42:25.344Z,36.57
2023-02-17T11:44:55.290Z,38.13
2023-02-17T11:47:37.210Z,37.97
2023-02-17T11:50:40.448Z,37.63
2023-02-17T11:53:24.309Z,37.90
2023-02-17T11:56:06.619Z,37.37
2023-02-17T11:58:51.368Z,37.63
2023-02-17T12:01:37.719Z,38.03
2023-02-17T12:04:29.833Z,37.60
2023-02-17T12:07:19.303Z,37.57
2023-02-17T12:09:56.477Z,36.10
2023-02-17T12:12:33.268Z,35.40
2023-02-17T12:15:12.966Z,36.00
2023-02-17T12:17:52.310Z,35.73
2023-02-17T12:20:40.664Z,35.07
2023-02-17T12:23:30.799Z,34.70
2023-02-17T12:26:07.870Z,35.30
2023-02-17T12:28:47.323Z,37.27
2023-02-17T12:31:27.386Z,37.77
2023-02-17T12:34:01.706Z,34.80
2023-02-17T12:36:40.487Z,37.80
2023-02-17T12:39:16.870Z,36.43
2023-02-17T12:41:49.393Z,36.37
2023-02-17T12:44:24.182Z,36.13
2023-02-17T12:46:57.460Z,35.43
2023-02-17T12:49:32.602Z,33.80
2023-02-17T12:52:08.428Z,34.90
2023-02-17T12:54:41.852Z,35.83
2023-02-17T12:57:20.303Z,35.83
2023-02-17T12:59:51.832Z,35.60
2023-02-17T13:02:22.604Z,34.73
2023-02-17T13:04:56.722Z,34.27
2023-02-17T13:07:45.158Z,33.33
2023-02-17T13:10:35.713Z,34.20
2023-02-17T13:13:07.450Z,32.97
2023-02-17T13:15:42.465Z,32.87
2023-02-17T13:18:15.389Z,34.00
2023-02-17T13:20:57.377Z,32.83
2023-02-17T13:23:36.371Z,33.37
2023-02-17T13:26:36.215Z,33.37
2023-02-17T13:29:35.632Z,32.80
2023-02-17T13:32:06.496Z,32.17
2023-02-17T13:34:39.499Z,31.70
2023-02-17T13:37:20.007Z,31.60
2023-02-17T13:39:50.701Z,32.50
2023-02-17T13:42:39.608Z,31.13
2023-02-17T13:45:20.165Z,30.70
2023-02-17T13:47:50.848Z,27.17
2023-02-17T13:50:29.578Z,27.97
2023-02-17T13:52:59.203Z,28.50
2023-02-17T13:55:31.383Z,29.50
2023-02-17T13:58:00.519Z,29.27
2023-02-17T14:00:32.035Z,27.47
2023-02-17T14:03:13.208Z,27.90
2023-02-17T14:05:48.542Z,30.40
2023-02-17T14:08:22.177Z,29.67
2023-02-17T14:10:55.717Z,28.33
2023-02-17T14:13:24.351Z,30.00
2023-02-17T14:15:56.323Z,30.60
2023-02-17T14:18:43.000Z,31.73
2023-02-17T14:21:13.374Z,30.87
2023-02-17T14:23:48.453Z,30.20
2023-02-17T14:26:29.621Z,31.13
2023-02-17T14:28:59.631Z,29.77
2023-02-17T14:31:28.982Z,31.47
2023-02-17T14:33:59.993Z,31.60
2023-02-17T14:36:34.517Z,32.97
2023-02-17T14:39:07.216Z,31.80
2023-02-17T14:41:36.849Z,30.37
2023-02-17T14:44:07.225Z,31.03
2023-02-17T14:46:35.923Z,31.57
2023-02-17T14:49:04.337Z,28.17
2023-02-17T14:51:36.727Z,30.17
2023-02-17T14:54:11.868Z,30.10
2023-02-17T14:56:44.826Z,31.37
2023-02-17T14:59:13.003Z,30.87
2023-02-17T15:01:41.603Z,30.33
2023-02-17T15:04:09.809Z,30.00
2023-02-17T15:06:41.812Z,30.67
2023-02-17T15:09:13.499Z,29.63
2023-02-17T15:11:49.021Z,29.90
2023-02-17T15:14:19.859Z,29.27
2023-02-17T15:16:49.166Z,29.90
2023-02-17T15:19:18.235Z,27.97
2023-02-17T15:21:49.419Z,28.10
2023-02-17T15:24:21.264Z,29.00
2023-02-17T15:26:51.539Z,28.00
2023-02-17T15:29:22.527Z,30.53
2023-02-17T15:31:52.507Z,28.33
2023-02-17T15:34:25.234Z,31.27
2023-02-17T15:36:53.458Z,31.30
2023-02-17T15:39:22.343Z,28.63
2023-02-17T15:41:54.717Z,29.67
2023-02-17T15:44:28.299Z,30.03
2023-02-17T15:46:59.452Z,29.33
2023-02-17T15:49:27.604Z,30.17
2023-02-17T15:51:58.384Z,27.90
2023-02-17T15:54:26.604Z,29.20
2023-02-17T15:56:56.303Z,28.17
2023-02-17T15:59:27.753Z,28.23
2023-02-17T16:01:59.131Z,27.70
2023-02-17T16:04:27.437Z,29.27
2023-02-17T16:06:55.749Z,28.20
2023-02-17T16:09:23.867Z,27.53
2023-02-17T16:11:57.376Z,27.50
2023-02-17T16:14:33.551Z,27.70
2023-02-17T16:17:03.552Z,26.97
2023-02-17T16:19:33.442Z,26.57
2023-02-17T16:22:02.555Z,26.50
2023-02-17T16:24:30.745Z,25.87
2023-02-17T16:26:58.936Z,23.93
2023-02-17T16:29:28.502Z,24.73
2023-02-17T16:31:57.710Z,24.40
2023-02-17T16:34:26.804Z,23.60
2023-02-17T16:36:58.095Z,23.70
2023-02-17T16:39:26.594Z,23.47
2023-02-17T16:41:54.885Z,23.63
2023-02-17T16:44:25.652Z,24.13
2023-02-17T16:46:57.112Z,25.57
2023-02-17T16:49:32.549Z,24.00
2023-02-17T16:52:01.355Z,22.23
2023-02-17T16:54:29.812Z,24.67
2023-02-17T16:57:00.869Z,23.93
2023-02-17T16:59:29.045Z,23.30
2023-02-17T17:01:58.889Z,23.67
2023-02-17T17:04:27.214Z,24.20
2023-02-17T17:06:55.455Z,22.80
2023-02-17T17:09:29.385Z,25.10
2023-02-17T17:11:57.766Z,22.93
2023-02-17T17:14:25.887Z,23.33
2023-02-17T17:16:59.735Z,21.97
2023-02-17T17:19:28.133Z,25.03
2023-02-17T17:21:56.570Z,26.07
2023-02-17T17:24:24.745Z,22.53
2023-02-17T17:26:52.897Z,23.50
2023-02-17T17:29:21.523Z,24.67
2023-02-17T17:31:52.312Z,23.73
2023-02-17T17:34:21.897Z,23.60
2023-02-17T17:36:50.211Z,24.73
2023-02-17T17:39:21.229Z,21.83
2023-02-17T17:41:50.320Z,21.60
2023-02-17T17:44:20.658Z,21.80
2023-02-17T17:46:52.371Z,22.53
2023-02-17T17:49:21.946Z,21.27
2023-02-17T17:51:53.331Z,21.83
2023-02-17T17:54:21.475Z,21.80
2023-02-17T17:56:49.731Z,20.07
2023-02-17T17:59:19.410Z,18.40
2023-02-17T18:01:47.701Z,19.43
2023-02-17T18:04:15.957Z,18.80
2023-02-17T18:06:49.284Z,18.67
2023-02-17T18:09:31.381Z,18.40
2023-02-17T18:12:05.609Z,20.17
2023-02-17T18:14:34.215Z,16.83
2023-02-17T18:17:02.703Z,17.03
2023-02-17T18:19:32.707Z,18.47
2023-02-17T18:22:04.624Z,17.13
2023-02-17T18:24:33.005Z,14.27
2023-02-17T18:27:01.442Z,16.60
2023-02-17T18:29:29.762Z,15.93
2023-02-17T18:32:00.138Z,17.10
2023-02-17T18:34:28.374Z,16.57
2023-02-17T18:36:56.719Z,16.93
2023-02-17T18:39:26.442Z,16.13
2023-02-17T18:41:55.463Z,16.00
2023-02-17T18:44:26.280Z,16.13
2023-02-17T18:46:54.420Z,16.33
2023-02-17T18:49:22.548Z,16.77
2023-02-17T18:51:52.102Z,16.77
2023-02-17T18:54:20.286Z,17.13
2023-02-17T18:56:49.884Z,17.43
2023-02-17T18:59:21.194Z,16.60
2023-02-17T19:01:49.394Z,16.90
2023-02-17T19:04:17.517Z,16.67
2023-02-17T19:06:48.515Z,15.97
2023-02-17T19:09:17.158Z,16.60
2023-02-17T19:11:45.393Z,17.50
2023-02-17T19:14:15.010Z,17.47
2023-02-17T19:16:43.438Z,16.70
2023-02-17T19:19:11.614Z,17.07
2023-02-17T19:21:42.396Z,17.00
2023-02-17T19:24:10.812Z,18.37
2023-02-17T19:26:39.224Z,18.40
2023-02-17T19:29:07.372Z,19.50
2023-02-17T19:31:38.818Z,18.83
2023-02-17T19:34:10.233Z,18.53
2023-02-17T19:36:38.628Z,19.13
2023-02-17T19:39:07.711Z,21.00
2023-02-17T19:41:38.438Z,21.30
2023-02-17T19:44:06.870Z,20.60
2023-02-17T19:46:40.114Z,19.87
2023-02-17T19:49:08.670Z,20.87
2023-02-17T19:51:36.828Z,21.00
2023-02-17T19:54:06.228Z,21.90
2023-02-17T19:56:36.301Z,30.20
2023-02-17T19:59:06.347Z,23.97
2023-02-17T20:01:35.625Z,23.33
2023-02-17T20:04:08.406Z,22.90
2023-02-17T20:06:41.637Z,22.67
2023-02-17T20:09:12.273Z,21.97
2023-02-17T20:11:43.689Z,23.70
2023-02-17T20:14:12.088Z,22.40
2023-02-17T20:16:42.429Z,24.47
2023-02-17T20:19:12.584Z,21.23
2023-02-17T20:21:44.679Z,24.03
2023-02-17T20:24:14.218Z,22.00
2023-02-17T20:26:47.664Z,21.30
2023-02-17T20:29:18.429Z,21.57
2023-02-17T20:31:47.607Z,22.47
2023-02-17T20:34:28.756Z,20.83
2023-02-17T20:37:00.691Z,20.60
2023-02-17T20:39:29.164Z,21.80
2023-02-17T20:41:58.045Z,22.70
2023-02-17T20:44:28.113Z,21.97
2023-02-17T20:46:57.194Z,20.20
2023-02-17T20:49:27.059Z,18.57
2023-02-17T20:51:55.377Z,21.47
2023-02-17T20:54:25.484Z,15.53
2023-02-17T20:56:53.877Z,20.40
2023-02-17T20:59:22.050Z,19.67
2023-02-17T21:01:51.262Z,21.30
2023-02-17T21:04:22.333Z,19.93
2023-02-17T21:06:52.710Z,16.10
2023-02-17T21:09:20.888Z,15.60
2023-02-17T21:11:51.614Z,15.70
2023-02-17T21:14:23.367Z,15.33
2023-02-17T21:16:51.659Z,14.03
2023-02-17T21:19:21.367Z,13.27
2023-02-17T21:21:49.677Z,14.50
2023-02-17T21:24:19.372Z,14.37
2023-02-17T21:26:47.543Z,16.00
2023-02-17T21:29:16.160Z,16.07
2023-02-17T21:31:44.629Z,14.77
2023-02-17T21:34:12.972Z,13.90
2023-02-17T21:36:41.496Z,13.93
2023-02-17T21:39:10.374Z,13.37
2023-02-17T21:41:42.530Z,12.27
2023-02-17T21:44:31.351Z,12.57
2023-02-17T21:46:59.548Z,13.63
2023-02-17T21:49:29.399Z,12.23
2023-02-17T21:51:57.619Z,11.37
2023-02-17T21:54:25.768Z,7.40
2023-02-17T21:56:56.565Z,7.67
2023-02-17T21:59:24.715Z,6.47
2023-02-17T22:01:54.554Z,5.33
2023-02-17T22:04:23.825Z,4.93
2023-02-17T22:06:52.525Z,3.37
2023-02-17T22:09:23.560Z,4.30
2023-02-17T22:11:51.871Z,4.03
2023-02-17T22:14:22.159Z,3.50
2023-02-17T22:16:50.641Z,3.40
2023-02-17T22:19:21.365Z,3.40
2023-02-17T22:21:52.590Z,3.00
2023-02-17T22:24:22.392Z,3.80
2023-02-17T22:26:55.256Z,2.80
2023-02-17T22:29:28.641Z,3.00
2023-02-17T22:31:57.745Z,2.20
2023-02-17T22:34:27.647Z,2.13
2023-02-17T22:36:56.571Z,1.83
2023-02-17T22:39:24.704Z,1.53
2023-02-17T22:41:54.788Z,1.70
2023-02-17T22:44:23.365Z,1.50
2023-02-17T22:46:53.652Z,1.80
2023-02-17T22:49:21.883Z,1.80
2023-02-17T22:51:50.539Z,1.40
2023-02-17T22:54:18.750Z,1.70
2023-02-17T22:56:47.533Z,1.40
2023-02-17T22:59:16.382Z,2.10
2023-02-17T23:01:46.272Z,1.60
2023-02-17T23:04:16.253Z,1.37
2023-02-17T23:06:46.592Z,1.57
2023-02-17T23:09:17.597Z,1.40
2023-02-17T23:11:54.347Z,1.27
2023-02-17T23:14:26.070Z,1.70
2023-02-17T23:16:57.094Z,1.30
2023-02-17T23:19:26.941Z,1.40
2023-02-17T23:22:00.534Z,1.33
2023-02-17T23:24:29.428Z,1.40
2023-02-17T23:27:00.298Z,1.60
2023-02-17T23:29:31.396Z,1.20
2023-02-17T23:31:59.970Z,1.57
2023-02-17T23:34:30.406Z,1.53
2023-02-17T23:36:59.572Z,1.37
2023-02-17T23:39:28.287Z,1.63
2023-02-17T23:41:56.752Z,1.47
2023-02-17T23:44:24.990Z,1.30
2023-02-17T23:46:56.556Z,1.57
2023-02-17T23:49:24.735Z,1.80
2023-02-17T23:51:54.669Z,1.40
2023-02-17T23:54:24.987Z,2.37
2023-02-17T23:56:55.172Z,1.87
2023-02-17T23:59:23.300Z,1.60
